Time;durP1;ratioP1;P1;durP2;ratioP2;P2;SDS_P1;SDS_P2;PMS_P1;PMS_P2;Temp;Humidity;BMP_temperature;BMP_pressure;BME280_temperature;BME280_humidity;BME280_pressure;Samples;Min_cycle;Max_cycle;Signal;HPM_P1;HPM_P2
2021/12/17 00:01:02;;;;;;;;;;;;;;;10.31;58.49;101120.19;4424655;32;20008;-80
2021/12/17 00:03:40;;;;;;;;;;;;;;;10.33;58.33;101121.13;4401633;32;19983;-81
2021/12/17 00:08:41;;;;;;;;;;;;;;;10.17;58.55;101120.50;4411620;32;20005;-81
2021/12/17 00:11:08;;;;;;;;;;;;;;;9.99;59.22;101119.81;4388661;32;19990;-80
2021/12/17 00:13:36;;;;;;;;;;;;;;;10.03;59.02;101126.88;4410283;32;20036;-81
2021/12/17 00:16:12;;;;;;;;;;;;;;;9.98;58.83;101128.37;4409969;32;19993;-83
2021/12/17 00:18:53;;;;;;;;;;;;;;;10.04;58.14;101123.44;4422449;32;20024;-81
2021/12/17 00:48:59;;;;;;;;;;;;;;;9.13;58.11;101121.50;4388891;32;19985;-81
2021/12/17 00:54:21;;;;;;;;;;;;;;;9.06;57.92;101122.03;4386553;32;20024;-82
2021/12/17 00:56:49;;;;;;;;;;;;;;;9.20;57.72;101132.97;4386071;32;19983;-81
2021/12/17 00:59:17;;;;;;;;;;;;;;;9.18;57.44;101135.47;4385817;32;19989;-81
2021/12/17 01:01:44;;;;;;;;;;;;;;;9.48;56.38;101124.66;4386199;32;20348;-81
2021/12/17 01:04:11;;;;;;;;;;;;;;;9.32;56.82;101121.44;4386260;32;20061;-81
2021/12/17 01:06:39;;;;;;;;;;;;;;;9.44;56.51;101117.59;4384960;32;20319;-81
2021/12/17 01:09:11;;;;;;;;;;;;;;;9.49;56.08;101108.31;4385875;32;19979;-81
2021/12/17 01:11:38;;;;;;;;;;;;;;;9.35;56.31;101102.59;4384944;32;20312;-81
2021/12/17 01:14:06;;;;;;;;;;;;;;;9.41;56.03;101096.78;4385004;32;19991;-82
2021/12/17 01:16:34;;;;;;;;;;;;;;;9.65;55.01;101102.94;4384957;32;19999;-81
2021/12/17 01:19:13;;;;;;;;;;;;;;;9.29;55.94;101092.88;4385323;32;19997;-80
2021/12/17 01:24:30;;;;;;;;;;;;;;;8.92;56.83;101089.56;4385967;32;19998;-81
2021/12/17 01:35:30;;;;;;;;;;;;;;;9.15;56.16;101068.16;4383968;32;20048;-81
2021/12/17 01:43:13;;;;;;;;;;;;;;;9.08;56.11;101092.00;4385983;32;19983;-81
2021/12/17 01:45:41;;;;;;;;;;;;;;;9.16;55.65;101080.28;4385154;32;20028;-81
2021/12/17 01:48:12;;;;;;;;;;;;;;;9.24;55.21;101089.22;4385312;32;19974;-80
2021/12/17 02:01:33;;;;;;;;;;;;;;;9.51;52.80;101062.75;4394440;32;20335;-82
2021/12/17 02:04:02;;;;;;;;;;;;;;;9.34;53.37;101045.69;4407937;32;20379;-81
2021/12/17 02:06:33;;;;;;;;;;;;;;;9.04;53.75;101059.12;4409207;32;19986;-80
2021/12/17 02:09:01;;;;;;;;;;;;;;;9.21;53.34;101060.69;4385740;32;20031;-81
2021/12/17 02:19:46;;;;;;;;;;;;;;;9.10;52.99;101050.75;4382048;32;19997;-80
2021/12/17 02:32:45;;;;;;;;;;;;;;;9.54;51.08;101049.97;4369434;32;19979;-82
2021/12/17 02:35:55;;;;;;;;;;;;;;;9.27;51.75;101063.50;4369802;32;19991;-82
2021/12/17 02:38:03;;;;;;;;;;;;;;;9.44;51.23;101076.22;4390586;32;20045;-81
2021/12/17 02:45:49;;;;;;;;;;;;;;;9.34;51.28;101102.53;4384332;32;19975;-82
2021/12/17 02:48:18;;;;;;;;;;;;;;;9.44;50.78;101094.31;4408193;32;20299;-80
2021/12/17 02:50:47;;;;;;;;;;;;;;;9.39;51.09;101098.44;4408337;32;20044;-81
2021/12/17 02:53:16;;;;;;;;;;;;;;;9.46;50.74;101092.69;4408039;32;19979;-81
2021/12/17 02:55:45;;;;;;;;;;;;;;;9.31;50.98;101093.81;4384749;32;20025;-81
2021/12/17 02:58:11;;;;;;;;;;;;;;;9.56;50.91;101092.25;4381877;32;19996;-81
2021/12/17 03:00:40;;;;;;;;;;;;;;;9.56;50.80;101081.91;4408401;32;19982;-81
2021/12/17 03:03:07;;;;;;;;;;;;;;;9.59;50.65;101074.28;4384788;32;19985;-81
2021/12/17 03:05:36;;;;;;;;;;;;;;;9.58;50.86;101080.28;4387696;32;19990;-81
2021/12/17 03:08:03;;;;;;;;;;;;;;;9.57;51.12;101077.59;4408071;32;20750;-80
2021/12/17 03:10:30;;;;;;;;;;;;;;;9.51;51.42;101068.81;4409479;32;20000;-81
2021/12/17 03:13:00;;;;;;;;;;;;;;;9.50;51.46;101060.97;4386321;32;19979;-81
2021/12/17 03:23:56;;;;;;;;;;;;;;;9.54;52.71;101049.97;4386860;32;19986;-81
2021/12/17 03:26:24;;;;;;;;;;;;;;;9.46;53.53;101064.28;4385930;32;19986;-82
2021/12/17 03:28:53;;;;;;;;;;;;;;;9.32;54.13;101062.00;4386729;32;19975;-80
2021/12/17 03:31:21;;;;;;;;;;;;;;;9.51;54.21;101078.28;4409889;32;19994;-81
2021/12/17 03:33:49;;;;;;;;;;;;;;;9.30;55.07;101079.16;4410175;32;19994;-81
2021/12/17 03:36:17;;;;;;;;;;;;;;;9.24;55.50;101081.47;4386373;32;19990;-81
2021/12/17 03:38:44;;;;;;;;;;;;;;;9.13;56.19;101093.06;4386756;32;20256;-81
2021/12/17 03:41:55;;;;;;;;;;;;;;;9.28;55.91;101090.22;4410168;32;19987;-81
2021/12/17 03:44:02;;;;;;;;;;;;;;;9.27;56.13;101084.19;4386111;32;19975;-83
2021/12/17 03:46:31;;;;;;;;;;;;;;;9.33;55.95;101083.56;4396188;32;19978;-82
2021/12/17 03:48:58;;;;;;;;;;;;;;;9.55;55.55;101082.72;4411959;32;20066;-81
2021/12/17 03:51:25;;;;;;;;;;;;;;;9.17;56.73;101082.03;4400823;32;19982;-80
2021/12/17 03:53:53;;;;;;;;;;;;;;;9.20;56.66;101076.12;4402243;32;19970;-81
2021/12/17 03:56:20;;;;;;;;;;;;;;;9.43;55.91;101064.16;4401666;32;19974;-81
2021/12/17 03:58:49;;;;;;;;;;;;;;;9.24;56.29;101058.22;4413139;32;20354;-81
2021/12/17 04:01:16;;;;;;;;;;;;;;;9.38;56.05;101063.97;4412275;32;19990;-81
2021/12/17 04:03:44;;;;;;;;;;;;;;;9.18;56.58;101067.41;4412697;32;19978;-81
2021/12/17 04:06:11;;;;;;;;;;;;;;;9.11;56.51;101066.28;4401006;32;20009;-81
2021/12/17 04:08:39;;;;;;;;;;;;;;;9.28;56.18;101075.62;4401889;32;19978;-80
2021/12/17 04:11:17;;;;;;;;;;;;;;;9.50;55.26;101076.47;4400810;32;19982;-82
2021/12/17 04:13:52;;;;;;;;;;;;;;;9.40;55.46;101084.69;4401535;32;19985;-81
2021/12/17 04:16:23;;;;;;;;;;;;;;;9.15;56.11;101075.03;4401754;32;19982;-80
2021/12/17 04:18:50;;;;;;;;;;;;;;;9.28;55.65;101080.81;4401204;32;19981;-81
2021/12/17 04:21:19;;;;;;;;;;;;;;;9.32;55.54;101093.03;4401409;32;19986;-80
2021/12/17 04:23:46;;;;;;;;;;;;;;;9.42;55.01;101094.28;4400180;32;19988;-81
2021/12/17 04:26:15;;;;;;;;;;;;;;;9.36;55.17;101090.56;4412602;32;19990;-80
2021/12/17 04:28:46;;;;;;;;;;;;;;;9.30;55.38;101094.66;4412706;32;20010;-81
2021/12/17 04:31:15;;;;;;;;;;;;;;;9.34;55.17;101098.22;4401563;32;20002;-83
2021/12/17 04:33:42;;;;;;;;;;;;;;;9.21;55.44;101104.59;4412206;32;19984;-80
2021/12/17 04:36:11;;;;;;;;;;;;;;;9.24;55.24;101104.72;4412634;32;20013;-81
2021/12/17 04:38:39;;;;;;;;;;;;;;;9.38;54.86;101107.91;4400793;32;19990;-80
2021/12/17 04:46:35;;;;;;;;;;;;;;;8.93;55.38;101101.66;4400982;32;19986;-81
2021/12/17 04:59:52;;;;;;;;;;;;;;;9.00;55.77;101098.53;4401746;32;20006;-83
2021/12/17 05:02:19;;;;;;;;;;;;;;;8.93;55.92;101086.16;4411404;32;19978;-82
2021/12/17 05:04:46;;;;;;;;;;;;;;;8.78;56.44;101081.25;4401522;32;19985;-82
2021/12/17 05:07:14;;;;;;;;;;;;;;;8.40;57.69;101077.00;4401176;32;20024;-81
2021/12/17 05:20:30;;;;;;;;;;;;;;;8.45;57.73;101049.66;4389137;32;19999;-83
2021/12/17 05:22:59;;;;;;;;;;;;;;;8.26;58.39;101048.81;4385264;32;20014;-83
2021/12/17 05:25:27;;;;;;;;;;;;;;;7.96;59.32;101034.56;4394395;32;19998;-84
2021/12/17 05:27:59;;;;;;;;;;;;;;;7.87;60.00;101042.75;4395550;32;19983;-82
2021/12/17 05:30:31;;;;;;;;;;;;;;;8.13;59.06;101031.03;4379938;32;20042;-82
2021/12/17 05:33:01;;;;;;;;;;;;;;;7.55;60.56;101033.50;4383415;32;20005;-82
2021/12/17 05:35:29;;;;;;;;;;;;;;;7.69;60.46;101040.22;4385159;32;19997;-82
2021/12/17 05:37:56;;;;;;;;;;;;;;;7.76;60.02;101042.25;4385408;32;19983;-81
2021/12/17 05:40:23;;;;;;;;;;;;;;;7.77;59.91;101045.72;4387621;32;20020;-82
2021/12/17 05:42:54;;;;;;;;;;;;;;;7.87;59.40;101043.63;4400394;32;20001;-82
2021/12/17 05:48:08;;;;;;;;;;;;;;;7.91;59.15;101035.22;4400188;32;19978;-84
2021/12/17 05:50:36;;;;;;;;;;;;;;;7.82;59.56;101060.59;4400223;32;19997;-84
2021/12/17 05:53:04;;;;;;;;;;;;;;;7.79;59.54;101055.28;4401011;32;19994;-83
2021/12/17 05:55:31;;;;;;;;;;;;;;;8.02;58.76;101064.06;4400332;32;19978;-85
2021/12/17 05:57:58;;;;;;;;;;;;;;;7.83;59.32;101054.59;4411543;32;19986;-84
2021/12/17 06:00:29;;;;;;;;;;;;;;;7.61;59.99;101055.28;4412054;32;19986;-83
2021/12/17 06:03:04;;;;;;;;;;;;;;;7.61;60.01;101059.56;4389115;32;20001;-84
2021/12/17 06:05:32;;;;;;;;;;;;;;;7.80;59.23;101056.16;4386645;32;19997;-86
2021/12/17 06:08:00;;;;;;;;;;;;;;;7.94;58.52;101049.94;4400035;32;19994;-86
2021/12/17 06:10:27;;;;;;;;;;;;;;;8.14;58.08;101035.41;4398260;32;20036;-87
2021/12/17 06:12:53;;;;;;;;;;;;;;;7.83;59.08;101035.69;4399922;32;20308;-84
2021/12/17 06:15:21;;;;;;;;;;;;;;;7.69;59.53;101042.78;4398744;32;20005;-84
2021/12/17 06:17:50;;;;;;;;;;;;;;;7.53;60.25;101055.72;4400338;32;19992;-84
2021/12/17 06:20:19;;;;;;;;;;;;;;;7.73;59.57;101070.47;4410303;32;19991;-83
2021/12/17 06:22:46;;;;;;;;;;;;;;;7.46;60.45;101060.56;4410826;32;21066;-81
2021/12/17 06:25:14;;;;;;;;;;;;;;;7.38;60.44;101061.91;4410702;32;20000;-80
2021/12/17 06:27:41;;;;;;;;;;;;;;;7.54;60.02;101062.66;4398419;32;20030;-81
2021/12/17 06:30:10;;;;;;;;;;;;;;;7.48;60.09;101059.78;4411624;32;20968;-81
2021/12/17 06:32:36;;;;;;;;;;;;;;;7.65;59.56;101064.03;4399568;32;20323;-81
2021/12/17 06:35:04;;;;;;;;;;;;;;;8.03;57.98;101068.41;4409449;32;20033;-75
2021/12/17 06:37:33;;;;;;;;;;;;;;;7.88;58.43;101066.03;4409713;32;20035;-81
2021/12/17 06:40:02;;;;;;;;;;;;;;;7.76;58.86;101075.75;4398260;32;20374;-82
2021/12/17 06:42:29;;;;;;;;;;;;;;;7.63;59.21;101086.31;4397187;32;19978;-81
2021/12/17 06:45:00;;;;;;;;;;;;;;;7.67;58.87;101080.47;4411665;32;20312;-82
2021/12/17 06:47:31;;;;;;;;;;;;;;;7.34;60.01;101101.22;4400293;32;20359;-82
2021/12/17 07:06:58;;;;;;;;;;;;;;;8.41;56.22;101083.91;4394256;32;19967;-82
2021/12/17 07:17:47;;;;;;;;;;;;;;;8.93;54.67;101112.00;4410348;32;20094;-85
2021/12/17 07:20:54;;;;;;;;;;;;;;;9.10;54.02;101120.47;4412944;32;20012;-85
2021/12/17 07:23:48;;;;;;;;;;;;;;;8.86;54.55;101116.00;4408127;32;19995;-83
2021/12/17 07:30:36;;;;;;;;;;;;;;;8.46;55.45;101136.59;4401089;32;20469;-76
2021/12/17 07:35:01;;;;;;;;;;;;;;;8.80;55.05;101142.44;4411570;32;19974;-82
2021/12/17 07:39:56;;;;;;;;;;;;;;;9.21;53.41;101161.44;4400798;32;19974;-81
2021/12/17 07:42:24;;;;;;;;;;;;;;;9.12;54.13;101160.16;4412517;32;20070;-84
2021/12/17 07:44:51;;;;;;;;;;;;;;;9.05;54.38;101159.00;4412993;32;19987;-81
2021/12/17 07:47:18;;;;;;;;;;;;;;;8.54;54.92;101168.78;4398899;32;19987;-83
2021/12/17 07:49:47;;;;;;;;;;;;;;;9.17;53.82;101169.00;4377238;32;19982;-84
2021/12/17 07:52:14;;;;;;;;;;;;;;;9.32;53.23;101159.31;4401181;32;20602;-83
2021/12/17 07:54:43;;;;;;;;;;;;;;;9.26;53.45;101154.78;4400345;32;19986;-83
2021/12/17 07:57:11;;;;;;;;;;;;;;;9.40;53.13;101167.38;4412288;32;20426;-81
2021/12/17 07:59:39;;;;;;;;;;;;;;;9.55;52.54;101178.38;4400486;32;19974;-82
2021/12/17 08:02:07;;;;;;;;;;;;;;;9.85;51.65;101183.91;4408417;32;20000;-82
2021/12/17 08:04:35;;;;;;;;;;;;;;;9.82;52.12;101172.56;4386121;32;19993;-82
2021/12/17 08:07:02;;;;;;;;;;;;;;;9.77;51.69;101164.62;4385928;32;20034;-82
2021/12/17 08:09:29;;;;;;;;;;;;;;;9.94;51.76;101163.59;4386023;32;19987;-82
2021/12/17 08:11:57;;;;;;;;;;;;;;;9.80;52.02;101163.88;4395127;32;20316;-82
2021/12/17 08:14:26;;;;;;;;;;;;;;;9.68;52.05;101180.62;4372030;32;19987;-81
2021/12/17 08:17:39;;;;;;;;;;;;;;;10.18;51.07;101184.38;4385416;32;19987;-83
2021/12/17 08:25:48;;;;;;;;;;;;;;;10.21;50.24;101163.81;4385980;32;20000;-82
2021/12/17 08:28:17;;;;;;;;;;;;;;;10.55;50.39;101165.09;4394398;32;20045;-82
2021/12/17 08:30:43;;;;;;;;;;;;;;;10.62;49.59;101177.44;4396718;32;19978;-83
2021/12/17 08:33:12;;;;;;;;;;;;;;;10.40;49.68;101180.06;4384046;32;20001;-83
2021/12/17 08:35:40;;;;;;;;;;;;;;;10.62;49.95;101181.75;4383567;32;20025;-82
2021/12/17 08:38:11;;;;;;;;;;;;;;;10.51;49.99;101173.59;4396618;32;19997;-83
2021/12/17 08:40:38;;;;;;;;;;;;;;;11.05;48.03;101172.97;4397042;32;19979;-82
2021/12/17 08:43:05;;;;;;;;;;;;;;;11.07;48.34;101177.38;4396345;32;20001;-82
2021/12/17 08:45:33;;;;;;;;;;;;;;;10.94;48.28;101185.53;4382212;32;20404;-81
2021/12/17 08:48:00;;;;;;;;;;;;;;;11.02;48.93;101172.84;4382112;32;19983;-82
2021/12/17 08:50:29;;;;;;;;;;;;;;;11.24;48.44;101180.56;4371448;32;20304;-82
2021/12/17 08:52:55;;;;;;;;;;;;;;;11.18;48.64;101170.84;4393932;32;19986;-82
2021/12/17 08:55:22;;;;;;;;;;;;;;;11.37;47.61;101176.69;4384591;32;19986;-78
2021/12/17 08:57:49;;;;;;;;;;;;;;;11.31;48.03;101166.97;4384758;32;20461;-82
2021/12/17 09:00:16;;;;;;;;;;;;;;;11.11;49.11;101168.87;4384416;32;20041;-82
2021/12/17 09:02:44;;;;;;;;;;;;;;;10.95;48.71;101164.00;4386054;32;19982;-79
2021/12/17 09:05:12;;;;;;;;;;;;;;;11.30;47.55;101172.13;4386094;32;19978;-82
2021/12/17 09:07:40;;;;;;;;;;;;;;;11.28;47.72;101172.06;4383729;32;20347;-78
2021/12/17 09:10:09;;;;;;;;;;;;;;;11.36;47.73;101174.94;4385318;32;20018;-80
2021/12/17 09:12:39;;;;;;;;;;;;;;;11.22;47.73;101165.78;4386000;32;19997;-82
2021/12/17 09:15:06;;;;;;;;;;;;;;;10.81;48.93;101172.94;4386196;32;20002;-84
2021/12/17 09:17:37;;;;;;;;;;;;;;;11.12;48.34;101175.81;4388871;32;19986;-83
2021/12/17 09:20:06;;;;;;;;;;;;;;;11.36;48.11;101169.75;4411710;32;20026;-82
2021/12/17 09:22:33;;;;;;;;;;;;;;;11.31;47.74;101172.16;4411766;32;20009;-83
2021/12/17 09:25:00;;;;;;;;;;;;;;;11.45;47.52;101159.66;4411621;32;20383;-83
2021/12/17 09:27:27;;;;;;;;;;;;;;;11.52;47.78;101156.47;4412390;32;20043;-87
2021/12/17 09:29:56;;;;;;;;;;;;;;;11.21;48.38;101154.53;4412129;32;20038;-83
2021/12/17 09:32:22;;;;;;;;;;;;;;;11.18;49.00;101150.12;4412497;32;19990;-88
2021/12/17 09:34:50;;;;;;;;;;;;;;;11.00;48.80;101138.22;4401164;32;19990;-87
2021/12/17 09:37:17;;;;;;;;;;;;;;;11.48;47.15;101146.78;4363883;32;19990;-82
2021/12/17 09:39:44;;;;;;;;;;;;;;;11.44;47.47;101137.16;4385587;32;19982;-80
2021/12/17 09:42:13;;;;;;;;;;;;;;;11.45;47.04;101120.75;4409041;32;20005;-82
2021/12/17 09:44:41;;;;;;;;;;;;;;;11.40;46.90;101123.22;4385560;32;19982;-84
2021/12/17 09:47:08;;;;;;;;;;;;;;;11.28;47.98;101119.34;4397327;32;19990;-82
2021/12/17 09:49:35;;;;;;;;;;;;;;;11.10;48.52;101117.91;4395903;32;20661;-81
2021/12/17 09:52:02;;;;;;;;;;;;;;;10.71;50.03;101120.81;4388053;32;20330;-82
2021/12/17 09:54:30;;;;;;;;;;;;;;;11.26;48.05;101123.56;4378608;32;20002;-83
2021/12/17 09:56:57;;;;;;;;;;;;;;;10.94;49.05;101134.63;4370380;32;19987;-83
2021/12/17 09:59:23;;;;;;;;;;;;;;;11.30;47.98;101133.25;4388160;32;19959;-84
2021/12/17 10:01:50;;;;;;;;;;;;;;;10.99;49.04;101132.16;4373615;32;19978;-82
2021/12/17 10:04:25;;;;;;;;;;;;;;;10.87;48.86;101142.09;4378419;32;19983;-83
2021/12/17 10:06:52;;;;;;;;;;;;;;;11.02;48.96;101137.47;4369861;32;19986;-84
2021/12/17 10:09:19;;;;;;;;;;;;;;;11.51;47.47;101128.75;4382906;32;19991;-84
2021/12/17 10:12:02;;;;;;;;;;;;;;;10.98;48.90;101129.53;4382989;32;20046;-85
2021/12/17 10:14:30;;;;;;;;;;;;;;;11.31;48.24;101125.50;4383350;32;20000;-85
2021/12/17 10:17:10;;;;;;;;;;;;;;;10.85;48.78;101123.03;4382743;32;20000;-85
2021/12/17 10:19:42;;;;;;;;;;;;;;;11.05;48.14;101124.63;4385620;32;19970;-84
2021/12/17 10:22:09;;;;;;;;;;;;;;;11.22;48.22;101121.72;4383684;32;20036;-84
2021/12/17 10:24:38;;;;;;;;;;;;;;;11.67;46.26;101129.25;4386192;32;20056;-81
2021/12/17 10:27:17;;;;;;;;;;;;;;;11.36;47.45;101121.37;4392537;32;20354;-80
2021/12/17 10:29:43;;;;;;;;;;;;;;;11.63;46.34;101118.78;4388324;32;20053;-81
2021/12/17 10:32:15;;;;;;;;;;;;;;;11.55;46.65;101128.03;4388624;32;19983;-78
2021/12/17 10:35:01;;;;;;;;;;;;;;;11.16;47.89;101118.06;4399390;32;20003;-76
2021/12/17 10:37:35;;;;;;;;;;;;;;;11.27;47.51;101117.59;4387882;32;20000;-78
2021/12/17 10:40:15;;;;;;;;;;;;;;;11.30;48.14;101107.31;4385645;32;19978;-78
2021/12/17 10:42:51;;;;;;;;;;;;;;;11.18;48.32;101103.47;4383517;32;20422;-77
2021/12/17 10:45:24;;;;;;;;;;;;;;;11.41;46.04;101095.56;4385827;32;19994;-77
2021/12/17 10:50:52;;;;;;;;;;;;;;;11.11;48.12;101085.97;4384189;32;19966;-78
2021/12/17 10:53:24;;;;;;;;;;;;;;;11.24;46.74;101088.97;4386000;32;20009;-78
2021/12/17 10:55:52;;;;;;;;;;;;;;;11.25;46.75;101093.31;4387361;32;19971;-82
2021/12/17 10:58:18;;;;;;;;;;;;;;;10.99;47.08;101101.09;4387958;32;19997;-84
2021/12/17 11:00:47;;;;;;;;;;;;;;;11.27;46.76;101091.66;4400057;32;19982;-82
2021/12/17 11:03:14;;;;;;;;;;;;;;;11.40;46.65;101094.69;4388266;32;19978;-83
2021/12/17 11:05:41;;;;;;;;;;;;;;;11.16;46.75;101086.97;4388261;32;20010;-83
2021/12/17 11:08:39;;;;;;;;;;;;;;;11.30;46.95;101086.59;4388670;32;19987;-83
2021/12/17 11:11:11;;;;;;;;;;;;;;;11.28;46.94;101083.91;4387695;32;19974;-81
2021/12/17 11:13:51;;;;;;;;;;;;;;;11.22;46.59;101086.31;4399042;32;19986;-85
2021/12/17 11:16:19;;;;;;;;;;;;;;;10.78;47.79;101084.78;4398808;32;20436;-84
2021/12/17 11:18:47;;;;;;;;;;;;;;;10.89;47.99;101073.97;4388429;32;20335;-80
2021/12/17 11:21:15;;;;;;;;;;;;;;;11.01;47.13;101081.31;4398926;32;19974;-84
2021/12/17 11:23:41;;;;;;;;;;;;;;;10.99;47.59;101080.34;4399317;32;20032;-83
2021/12/17 11:26:08;;;;;;;;;;;;;;;10.90;47.84;101080.03;4399638;32;20332;-79
2021/12/17 11:28:35;;;;;;;;;;;;;;;10.96;48.62;101080.25;4398993;32;20498;-84
2021/12/17 11:31:02;;;;;;;;;;;;;;;11.04;48.06;101078.81;4396679;32;20032;-82
2021/12/17 11:33:29;;;;;;;;;;;;;;;11.22;47.77;101091.50;4396424;32;19986;-84
2021/12/17 11:35:56;;;;;;;;;;;;;;;11.65;45.50;101079.94;4396577;32;20109;-83
2021/12/17 11:38:32;;;;;;;;;;;;;;;11.51;46.59;101082.06;4385543;32;19978;-83
2021/12/17 11:41:16;;;;;;;;;;;;;;;11.59;45.81;101075.44;4385249;32;20036;-83
2021/12/17 11:43:54;;;;;;;;;;;;;;;11.56;45.74;101090.91;4396256;32;19994;-81
2021/12/17 11:46:26;;;;;;;;;;;;;;;11.07;46.72;101073.75;4395341;32;20005;-82
2021/12/17 11:48:54;;;;;;;;;;;;;;;11.29;46.32;101074.44;4381414;32;19998;-83
2021/12/17 11:51:41;;;;;;;;;;;;;;;10.99;47.41;101064.81;4383352;32;19974;-84
2021/12/17 11:54:08;;;;;;;;;;;;;;;10.87;48.12;101074.75;4396653;32;20442;-82
2021/12/17 11:56:39;;;;;;;;;;;;;;;10.70;47.87;101077.63;4384593;32;19982;-81
2021/12/17 11:59:07;;;;;;;;;;;;;;;11.18;47.11;101077.56;4373924;32;20044;-82
2021/12/17 12:01:57;;;;;;;;;;;;;;;11.38;46.48;101085.09;4395587;32;19979;-81
2021/12/17 12:04:39;;;;;;;;;;;;;;;11.63;45.49;101087.66;4388591;32;19991;-82
2021/12/17 12:07:13;;;;;;;;;;;;;;;11.21;46.02;101091.47;4396296;32;19990;-80
2021/12/17 12:09:58;;;;;;;;;;;;;;;11.36;45.25;101082.47;4385182;32;20073;-83
2021/12/17 12:12:30;;;;;;;;;;;;;;;10.94;46.22;101080.22;4384432;32;19987;-82
2021/12/17 12:15:17;;;;;;;;;;;;;;;10.95;46.39;101083.69;4382645;32;19983;-81
2021/12/17 12:18:07;;;;;;;;;;;;;;;11.10;46.08;101084.22;4383286;32;19994;-81
2021/12/17 12:20:37;;;;;;;;;;;;;;;10.83;46.56;101093.59;4396136;32;19983;-82
2021/12/17 12:23:16;;;;;;;;;;;;;;;11.03;46.14;101092.56;4384831;32;20480;-81
2021/12/17 12:25:44;;;;;;;;;;;;;;;10.99;46.41;101095.91;4374162;32;19983;-82
2021/12/17 12:28:13;;;;;;;;;;;;;;;11.11;46.04;101095.44;4379257;32;20316;-82
2021/12/17 12:30:41;;;;;;;;;;;;;;;11.13;45.69;101089.47;4395755;32;19994;-84
2021/12/17 12:33:08;;;;;;;;;;;;;;;10.75;47.02;101084.66;4383089;32;20041;-84
2021/12/17 12:35:35;;;;;;;;;;;;;;;10.40;47.51;101084.28;4408174;32;19994;-81
2021/12/17 12:38:16;;;;;;;;;;;;;;;10.89;46.26;101083.47;4383453;32;20057;-82
2021/12/17 12:40:50;;;;;;;;;;;;;;;10.94;46.40;101076.72;4391691;32;19979;-80
2021/12/17 12:43:24;;;;;;;;;;;;;;;11.18;46.21;101082.75;4369813;32;19983;-79
2021/12/17 12:45:51;;;;;;;;;;;;;;;11.34;45.91;101078.06;4373414;32;19987;-79
2021/12/17 12:48:28;;;;;;;;;;;;;;;10.93;47.58;101080.13;4382928;32;19978;-79
2021/12/17 12:51:11;;;;;;;;;;;;;;;11.14;46.12;101080.87;4384817;32;20089;-77
2021/12/17 12:53:37;;;;;;;;;;;;;;;11.09;46.13;101079.84;4383116;32;20025;-83
2021/12/17 12:56:08;;;;;;;;;;;;;;;11.51;45.49;101087.25;4379131;32;19994;-81
2021/12/17 12:58:38;;;;;;;;;;;;;;;11.15;46.27;101079.16;4406672;32;20763;-80
2021/12/17 13:01:05;;;;;;;;;;;;;;;11.48;45.32;101089.75;4381833;32;19991;-81
2021/12/17 13:03:33;;;;;;;;;;;;;;;11.28;45.47;101088.22;4392557;32;20024;-82
2021/12/17 13:06:00;;;;;;;;;;;;;;;11.07;46.01;101084.09;4379418;32;20316;-82
2021/12/17 13:08:31;;;;;;;;;;;;;;;11.04;46.13;101084.00;4380474;32;19986;-83
2021/12/17 13:11:00;;;;;;;;;;;;;;;11.05;46.44;101077.97;4404273;32;20050;-82
2021/12/17 13:13:36;;;;;;;;;;;;;;;10.87;47.68;101085.09;4382264;32;19992;-83
2021/12/17 13:16:12;;;;;;;;;;;;;;;10.93;47.04;101091.37;4383739;32;20033;-82
2021/12/17 13:24:13;;;;;;;;;;;;;;;10.63;47.91;101086.00;4405805;32;20316;-81
2021/12/17 13:26:44;;;;;;;;;;;;;;;11.00;46.80;101076.91;4385162;32;19983;-80
2021/12/17 13:29:14;;;;;;;;;;;;;;;10.59;47.70;101073.78;4384332;32;19986;-82
2021/12/17 13:31:40;;;;;;;;;;;;;;;10.79;47.27;101077.09;4384969;32;20037;-82
2021/12/17 13:34:16;;;;;;;;;;;;;;;10.45;48.27;101080.16;4383448;32;19974;-81
2021/12/17 13:36:51;;;;;;;;;;;;;;;10.48;48.33;101080.28;4382904;32;19993;-80
2021/12/17 13:39:18;;;;;;;;;;;;;;;10.58;47.60;101082.38;4398799;32;20333;-81
2021/12/17 13:41:46;;;;;;;;;;;;;;;10.63;47.25;101086.00;4396842;32;20777;-83
2021/12/17 13:44:26;;;;;;;;;;;;;;;10.42;47.99;101090.41;4410631;32;19987;-84
2021/12/17 13:47:05;;;;;;;;;;;;;;;10.63;47.45;101075.66;4399872;32;20037;-84
2021/12/17 13:49:31;;;;;;;;;;;;;;;10.23;48.69;101088.81;4410095;32;19990;-80
2021/12/17 13:51:58;;;;;;;;;;;;;;;10.49;47.46;101087.22;4399132;32;20263;-84
2021/12/17 13:54:25;;;;;;;;;;;;;;;10.41;47.90;101099.00;4383731;32;19982;-83
2021/12/17 13:56:59;;;;;;;;;;;;;;;10.14;48.78;101099.69;4395228;32;19978;-80
2021/12/17 13:59:29;;;;;;;;;;;;;;;9.64;49.84;101111.53;4388908;32;19974;-83
2021/12/17 14:01:56;;;;;;;;;;;;;;;9.99;48.72;101107.75;4399341;32;19989;-84
2021/12/17 14:04:23;;;;;;;;;;;;;;;10.41;47.77;101107.66;4398603;32;20020;-84
2021/12/17 14:06:52;;;;;;;;;;;;;;;10.36;47.71;101105.72;4397059;32;20025;-84
2021/12/17 14:09:23;;;;;;;;;;;;;;;10.21;48.30;101117.22;4397509;32;20042;-82
2021/12/17 14:11:50;;;;;;;;;;;;;;;10.45;47.55;101119.00;4398941;32;20019;-84
2021/12/17 14:14:37;;;;;;;;;;;;;;;10.32;47.88;101109.00;4398160;32;19978;-84
2021/12/17 14:17:05;;;;;;;;;;;;;;;9.82;48.98;101100.16;4399652;32;19974;-83
2021/12/17 14:19:40;;;;;;;;;;;;;;;10.36;47.67;101111.75;4398561;32;19990;-85
2021/12/17 14:22:27;;;;;;;;;;;;;;;10.59;47.07;101104.87;4398675;32;19982;-82
2021/12/17 14:24:55;;;;;;;;;;;;;;;10.59;47.06;101094.50;4410436;32;20398;-84
2021/12/17 14:27:22;;;;;;;;;;;;;;;10.37;47.31;101092.84;4410372;32;19986;-85
2021/12/17 14:30:08;;;;;;;;;;;;;;;9.99;48.63;101093.94;4398449;32;20025;-85
2021/12/17 14:33:01;;;;;;;;;;;;;;;10.16;48.25;101090.28;4399075;32;20003;-84
2021/12/17 14:35:46;;;;;;;;;;;;;;;10.56;47.20;101084.03;4399561;32;19971;-80
2021/12/17 14:38:14;;;;;;;;;;;;;;;10.54;46.97;101085.69;4398467;32;20316;-87
2021/12/17 14:40:49;;;;;;;;;;;;;;;10.32;47.55;101088.31;4410529;32;20034;-85
2021/12/17 14:43:53;;;;;;;;;;;;;;;10.23;47.72;101094.84;4398836;32;19990;-86
2021/12/17 14:46:24;;;;;;;;;;;;;;;9.99;48.36;101088.78;4389130;32;19978;-82
2021/12/17 15:00:47;;;;;;;;;;;;;;;9.93;48.57;101088.53;4398945;32;20001;-85
2021/12/17 15:05:51;;;;;;;;;;;;;;;9.68;49.32;101087.56;4409089;32;19978;-84
2021/12/17 15:08:18;;;;;;;;;;;;;;;9.69;48.94;101083.28;4400997;32;19983;-84
2021/12/17 15:10:47;;;;;;;;;;;;;;;9.71;49.04;101072.19;4410690;32;20294;-85
2021/12/17 15:13:14;;;;;;;;;;;;;;;9.95;48.50;101076.53;4401226;32;20004;-85
2021/12/17 15:15:41;;;;;;;;;;;;;;;9.84;48.76;101070.06;4397456;32;19995;-86
2021/12/17 15:18:10;;;;;;;;;;;;;;;9.75;48.91;101068.88;4399959;32;19978;-83
2021/12/17 15:20:38;;;;;;;;;;;;;;;9.63;49.37;101062.34;4401144;32;20240;-83
2021/12/17 15:23:05;;;;;;;;;;;;;;;9.63;49.15;101065.81;4402678;32;20010;-81
2021/12/17 15:25:32;;;;;;;;;;;;;;;9.62;49.07;101076.09;4400751;32;19998;-84
2021/12/17 15:27:59;;;;;;;;;;;;;;;9.56;49.49;101081.91;4400858;32;20032;-83
2021/12/17 15:30:27;;;;;;;;;;;;;;;9.74;48.97;101072.28;4400122;32;20307;-83
2021/12/17 15:32:54;;;;;;;;;;;;;;;9.32;49.76;101076.63;4410372;32;20404;-82
2021/12/17 15:35:23;;;;;;;;;;;;;;;9.26;50.19;101082.44;4400446;32;20057;-83
2021/12/17 15:37:51;;;;;;;;;;;;;;;9.53;49.36;101077.47;4411131;32;20038;-84
2021/12/17 15:40:18;;;;;;;;;;;;;;;9.41;49.56;101089.03;4410525;32;19989;-82
2021/12/17 15:42:45;;;;;;;;;;;;;;;9.39;49.69;101077.78;4329244;32;20008;-83
2021/12/17 15:45:11;;;;;;;;;;;;;;;9.55;49.34;101080.16;4385103;32;20329;-82
2021/12/17 15:47:40;;;;;;;;;;;;;;;9.45;49.35;101067.69;4396362;32;20780;-84
2021/12/17 15:50:08;;;;;;;;;;;;;;;9.31;49.73;101080.91;4395361;32;20347;-83
2021/12/17 15:52:47;;;;;;;;;;;;;;;9.40;49.47;101069.19;4390891;32;20022;-83
2021/12/17 15:55:16;;;;;;;;;;;;;;;9.37;49.58;101074.22;4385496;32;20331;-83
2021/12/17 15:57:43;;;;;;;;;;;;;;;9.32;49.85;101069.75;4384267;32;19971;-84
2021/12/17 16:00:10;;;;;;;;;;;;;;;9.20;50.17;101071.84;4382600;32;19983;-77
2021/12/17 16:02:42;;;;;;;;;;;;;;;9.13;50.29;101080.16;4379582;32;20236;-80
2021/12/17 16:05:09;;;;;;;;;;;;;;;9.06;50.46;101073.84;4394026;32;19994;-82